Time;durP1;ratioP1;P1;durP2;ratioP2;P2;SDS_P1;SDS_P2;PMS_P1;PMS_P2;Temp;Humidity;BMP_temperature;BMP_pressure;BME280_temperature;BME280_humidity;BME280_pressure;Samples;Min_cycle;Max_cycle;Signal;HPM_P1;HPM_P2
2023/12/15 00:00:36;;;;;;;9.73;5.13;;;5.10;99.90;;;;;;5061477;28;20059;-76
2023/12/15 00:03:02;;;;;;;9.82;4.90;;;5.20;99.90;;;;;;5065479;28;20029;-75
2023/12/15 00:05:28;;;;;;;11.82;5.63;;;5.20;99.90;;;;;;5063941;28;20037;-77
2023/12/15 00:08:10;;;;;;;10.38;4.82;;;5.20;99.90;;;;;;5047472;28;20028;-76
2023/12/15 00:10:35;;;;;;;11.95;4.95;;;5.20;99.90;;;;;;5044719;28;20044;-77
2023/12/15 00:13:20;;;;;;;9.80;5.40;;;5.10;99.90;;;;;;5044115;28;20025;-80
2023/12/15 00:15:45;;;;;;;11.02;5.10;;;5.10;99.90;;;;;;5045137;28;20021;-75
2023/12/15 00:18:11;;;;;;;9.77;4.68;;;5.10;99.90;;;;;;5027238;28;20029;-78
2023/12/15 00:20:37;;;;;;;10.68;4.65;;;5.10;99.90;;;;;;5044300;28;20026;-77
2023/12/15 00:23:14;;;;;;;11.93;5.05;;;5.10;99.90;;;;;;5044845;28;20026;-75
2023/12/15 00:25:40;;;;;;;9.25;5.13;;;5.00;99.90;;;;;;5047998;28;20037;-79
2023/12/15 00:28:06;;;;;;;10.38;4.65;;;5.00;99.90;;;;;;5060488;28;20049;-77
2023/12/15 00:30:44;;;;;;;9.52;5.05;;;5.10;99.90;;;;;;5060778;28;20030;-77
2023/12/15 00:33:09;;;;;;;9.95;4.30;;;5.00;99.90;;;;;;5044968;28;20033;-78
2023/12/15 00:35:35;;;;;;;9.50;4.63;;;5.00;99.90;;;;;;5044412;28;20192;-78
2023/12/15 00:38:01;;;;;;;10.60;4.85;;;5.00;99.90;;;;;;5043722;28;20025;-79
2023/12/15 00:40:27;;;;;;;10.30;4.93;;;5.00;99.90;;;;;;5045816;28;20025;-79
2023/12/15 00:42:52;;;;;;;9.75;4.60;;;4.90;99.90;;;;;;5046591;28;20247;-75
2023/12/15 00:45:18;;;;;;;10.93;5.15;;;4.90;99.90;;;;;;5043265;28;20212;-76
2023/12/15 00:47:44;;;;;;;11.50;5.00;;;4.90;99.90;;;;;;5043802;28;20044;-75
2023/12/15 00:50:12;;;;;;;12.63;5.20;;;4.90;99.90;;;;;;5043560;28;20067;-79
2023/12/15 00:52:37;;;;;;;13.97;5.60;;;4.70;99.90;;;;;;5044773;28;20295;-77
2023/12/15 00:55:03;;;;;;;11.05;5.43;;;4.70;99.90;;;;;;5044265;28;20072;-77
2023/12/15 00:57:32;;;;;;;10.70;5.45;;;4.70;99.90;;;;;;5044191;28;20072;-77
2023/12/15 01:00:01;;;;;;;11.27;5.18;;;4.60;99.90;;;;;;5044619;28;20057;-79
2023/12/15 01:02:27;;;;;;;8.70;4.53;;;4.70;99.90;;;;;;5064248;28;20207;-77
2023/12/15 01:04:53;;;;;;;11.48;5.30;;;4.60;99.90;;;;;;5063661;28;20025;-76
2023/12/15 01:07:19;;;;;;;11.52;5.72;;;4.60;99.90;;;;;;5064231;28;20074;-77
2023/12/15 01:09:48;;;;;;;9.40;4.53;;;4.60;99.90;;;;;;5064470;28;20315;-77
2023/12/15 01:12:14;;;;;;;11.00;4.78;;;4.60;99.90;;;;;;5063844;28;20112;-77
2023/12/15 01:14:39;;;;;;;10.70;5.13;;;4.60;99.90;;;;;;5054880;28;20064;-77
2023/12/15 01:17:16;;;;;;;;;;;4.60;99.90;;;;;;5044672;28;20041;-77
2023/12/15 01:19:42;;;;;;;10.77;4.57;;;4.60;99.90;;;;;;5044326;28;20091;-78
2023/12/15 01:22:16;;;;;;;11.52;5.50;;;4.60;99.90;;;;;;5043590;28;20028;-76
2023/12/15 01:24:42;;;;;;;10.13;4.57;;;4.70;99.90;;;;;;5044446;28;20087;-76
2023/12/15 01:27:07;;;;;;;10.40;5.07;;;4.70;99.90;;;;;;5043812;28;20033;-76
2023/12/15 01:29:33;;;;;;;12.18;6.07;;;4.70;99.90;;;;;;5047466;28;20040;-75
2023/12/15 01:32:04;;;;;;;11.45;5.57;;;4.70;99.90;;;;;;5059387;28;20052;-78
2023/12/15 01:34:30;;;;;;;11.95;5.05;;;4.80;99.90;;;;;;5044011;28;20034;-77
2023/12/15 01:36:56;;;;;;;11.55;5.68;;;4.80;99.90;;;;;;5043886;28;20227;-76
2023/12/15 01:39:21;;;;;;;10.18;5.18;;;4.80;99.90;;;;;;5043283;28;20068;-76
2023/12/15 01:41:48;;;;;;;11.52;5.47;;;4.80;99.90;;;;;;5025945;28;20040;-76
2023/12/15 01:44:14;;;;;;;11.80;5.40;;;4.80;99.90;;;;;;5042303;28;20030;-77
2023/12/15 01:46:39;;;;;;;11.38;5.03;;;4.90;99.90;;;;;;5046456;28;20017;-77
2023/12/15 01:49:05;;;;;;;11.77;5.93;;;4.90;99.90;;;;;;5042217;28;20029;-77
2023/12/15 01:51:31;;;;;;;12.18;5.63;;;4.90;99.90;;;;;;5042733;28;20026;-76
2023/12/15 01:54:06;;;;;;;11.82;5.78;;;4.90;99.90;;;;;;5043093;28;20041;-77
2023/12/15 01:56:32;;;;;;;12.18;5.85;;;4.80;99.90;;;;;;5059153;28;20338;-75
2023/12/15 01:58:58;;;;;;;13.13;6.32;;;4.70;99.90;;;;;;5042959;28;20115;-77
2023/12/15 02:01:23;;;;;;;13.00;6.03;;;4.70;99.90;;;;;;5026520;28;20048;-77
2023/12/15 02:03:49;;;;;;;9.02;5.32;;;4.70;99.90;;;;;;5058914;28;20016;-80
2023/12/15 02:06:15;;;;;;;11.57;5.32;;;4.60;99.90;;;;;;5049805;28;20030;-78
2023/12/15 02:08:45;;;;;;;11.38;5.47;;;4.50;99.90;;;;;;5042773;28;20021;-75
2023/12/15 02:11:11;;;;;;;11.75;5.57;;;4.30;99.90;;;;;;5042449;28;20037;-76
2023/12/15 02:13:36;;;;;;;10.70;5.63;;;4.40;99.90;;;;;;5043251;28;20312;-77
2023/12/15 02:16:02;;;;;;;11.40;6.20;;;4.30;99.90;;;;;;5043122;28;20017;-75
2023/12/15 02:18:28;;;;;;;10.13;5.85;;;4.30;99.90;;;;;;5043448;28;20036;-78
2023/12/15 02:20:54;;;;;;;11.63;5.65;;;4.10;99.90;;;;;;5045705;28;20013;-78
2023/12/15 02:23:20;;;;;;;12.48;6.07;;;4.10;99.90;;;;;;5043539;28;20365;-77
2023/12/15 02:25:46;;;;;;;12.18;6.20;;;4.10;99.90;;;;;;5042768;28;20021;-75
2023/12/15 02:28:23;;;;;;;13.75;6.70;;;4.00;99.90;;;;;;5042377;28;20039;-76
2023/12/15 02:30:52;;;;;;;15.52;7.03;;;4.00;99.90;;;;;;5043808;28;20336;-76
2023/12/15 02:33:26;;;;;;;13.40;6.53;;;3.80;99.90;;;;;;5042057;28;20137;-79
2023/12/15 02:35:55;;;;;;;13.20;7.05;;;3.70;99.90;;;;;;5043311;28;20022;-75
2023/12/15 02:38:27;;;;;;;14.77;6.60;;;3.70;99.90;;;;;;5041579;28;20637;-78
2023/12/15 02:40:52;;;;;;;13.25;6.97;;;3.60;99.90;;;;;;5045441;28;20048;-77
2023/12/15 02:43:18;;;;;;;13.88;7.38;;;3.50;99.90;;;;;;5042740;28;20037;-78
2023/12/15 02:45:44;;;;;;;13.55;6.80;;;3.50;99.90;;;;;;5059363;28;20025;-77
2023/12/15 02:48:09;;;;;;;14.57;7.10;;;3.60;99.90;;;;;;5058595;28;20025;-76
2023/12/15 02:50:35;;;;;;;15.98;6.88;;;3.60;99.90;;;;;;5043539;28;20040;-77
2023/12/15 02:53:01;;;;;;;14.90;7.10;;;3.60;99.90;;;;;;5043213;28;20085;-75
2023/12/15 02:55:29;;;;;;;15.23;7.47;;;3.70;99.90;;;;;;5043009;28;20033;-80
2023/12/15 02:57:55;;;;;;;12.70;6.50;;;3.80;99.90;;;;;;5046960;28;20250;-78
2023/12/15 03:00:20;;;;;;;13.98;6.82;;;3.90;99.90;;;;;;5041257;28;20041;-79
2023/12/15 03:02:49;;;;;;;11.23;5.65;;;3.90;99.90;;;;;;5049492;28;20088;-75
2023/12/15 03:05:15;;;;;;;12.90;6.13;;;4.00;99.90;;;;;;5061895;28;20298;-76
2023/12/15 03:07:40;;;;;;;13.57;5.90;;;4.10;99.90;;;;;;5061367;28;20029;-75
2023/12/15 03:10:06;;;;;;;11.63;5.63;;;4.10;99.90;;;;;;5062523;28;20208;-78
2023/12/15 03:12:32;;;;;;;13.63;5.88;;;4.20;99.90;;;;;;5062461;28;20098;-78
2023/12/15 03:14:58;;;;;;;11.20;6.05;;;4.20;99.90;;;;;;5047950;28;20025;-76
2023/12/15 03:17:24;;;;;;;11.02;5.80;;;4.30;99.90;;;;;;5024924;28;20109;-75
2023/12/15 03:19:50;;;;;;;11.93;5.43;;;4.30;99.90;;;;;;5041533;28;20211;-79
2023/12/15 03:22:16;;;;;;;9.50;4.95;;;4.40;99.90;;;;;;5041042;28;20045;-78
2023/12/15 03:24:42;;;;;;;9.55;4.97;;;4.50;99.90;;;;;;5041586;28;20301;-75
2023/12/15 03:27:07;;;;;;;8.68;4.28;;;4.50;99.90;;;;;;5041104;28;20026;-75
2023/12/15 03:29:33;;;;;;;11.77;5.70;;;4.50;99.90;;;;;;5042010;28;20048;-80
2023/12/15 03:31:59;;;;;;;11.27;4.93;;;4.60;99.90;;;;;;5044231;28;20025;-77
2023/12/15 03:34:25;;;;;;;7.82;4.55;;;4.60;99.90;;;;;;5057473;28;20164;-79
2023/12/15 03:36:51;;;;;;;11.60;5.43;;;4.60;99.90;;;;;;5044887;28;20021;-76
2023/12/15 03:39:17;;;;;;;11.15;4.90;;;4.60;99.90;;;;;;5044726;28;20061;-77
2023/12/15 03:41:43;;;;;;;8.15;4.68;;;4.60;99.90;;;;;;5045307;28;20025;-76
2023/12/15 03:44:14;;;;;;;10.27;5.45;;;4.60;99.90;;;;;;5046069;28;20064;-76
2023/12/15 03:46:40;;;;;;;8.50;4.35;;;4.70;99.90;;;;;;5048453;28;20021;-79
2023/12/15 03:49:09;;;;;;;8.90;4.40;;;4.70;99.90;;;;;;5061755;28;20037;-78
2023/12/15 03:51:34;;;;;;;9.50;5.00;;;4.70;99.90;;;;;;5061661;28;20311;-77
2023/12/15 03:54:00;;;;;;;8.82;4.60;;;4.70;99.90;;;;;;5061877;28;20026;-80
2023/12/15 03:56:26;;;;;;;9.13;4.78;;;4.70;99.90;;;;;;5045409;28;20616;-80
2023/12/15 03:58:52;;;;;;;9.13;4.68;;;4.70;99.90;;;;;;5045969;28;20232;-78
2023/12/15 04:01:21;;;;;;;8.95;4.72;;;4.70;99.90;;;;;;5044645;28;20252;-78
2023/12/15 04:03:47;;;;;;;8.70;4.55;;;4.70;99.90;;;;;;5061016;28;20096;-77
2023/12/15 04:06:13;;;;;;;9.73;4.60;;;4.70;99.90;;;;;;5064640;28;20056;-76
2023/12/15 04:08:42;;;;;;;9.73;4.70;;;4.80;99.90;;;;;;5071550;28;20021;-76
2023/12/15 04:11:10;;;;;;;8.85;4.50;;;4.70;99.90;;;;;;5071973;28;20036;-80
2023/12/15 04:13:40;;;;;;;8.98;4.93;;;4.80;99.90;;;;;;5072681;28;20082;-76
2023/12/15 04:16:06;;;;;;;8.80;4.18;;;4.90;99.90;;;;;;5070979;28;20096;-77
2023/12/15 04:18:32;;;;;;;10.07;4.70;;;4.80;99.90;;;;;;5065651;28;20029;-78
2023/12/15 04:20:58;;;;;;;8.55;4.38;;;4.80;99.90;;;;;;5066779;28;20021;-77
2023/12/15 04:23:24;;;;;;;10.25;4.90;;;4.80;99.90;;;;;;5053912;28;20040;-77
2023/12/15 04:25:49;;;;;;;9.77;5.03;;;4.80;99.90;;;;;;5045253;28;20072;-79
2023/12/15 04:28:15;;;;;;;10.32;5.22;;;4.80;99.90;;;;;;5045186;28;20025;-79
2023/12/15 04:30:41;;;;;;;8.88;4.93;;;4.80;99.90;;;;;;5045350;28;20053;-81
2023/12/15 04:33:06;;;;;;;8.23;4.45;;;4.80;99.90;;;;;;5045375;28;20339;-78
2023/12/15 04:35:53;;;;;;;10.07;4.55;;;4.80;99.90;;;;;;5043933;28;20235;-78
2023/12/15 04:38:22;;;;;;;8.73;4.65;;;4.80;99.90;;;;;;5044690;28;20098;-79
2023/12/15 04:40:49;;;;;;;8.25;4.50;;;4.80;99.90;;;;;;5049010;28;20141;-77
2023/12/15 04:43:15;;;;;;;9.32;4.63;;;4.90;99.90;;;;;;5043788;28;20207;-79
2023/12/15 04:45:41;;;;;;;8.32;4.40;;;4.90;99.90;;;;;;5045351;28;20052;-77
2023/12/15 04:48:06;;;;;;;8.68;5.05;;;4.90;99.90;;;;;;5044479;28;20200;-77
2023/12/15 04:50:32;;;;;;;8.73;4.22;;;4.90;99.90;;;;;;5059849;28;20075;-77
2023/12/15 04:52:58;;;;;;;8.75;4.22;;;4.90;99.90;;;;;;5045173;28;20182;-77
2023/12/15 04:55:25;;;;;;;9.05;4.55;;;4.90;99.90;;;;;;5059690;28;20038;-80
2023/12/15 04:57:51;;;;;;;8.32;4.63;;;4.90;99.90;;;;;;5046692;28;20376;-79
2023/12/15 05:00:17;;;;;;;9.50;4.93;;;4.90;99.90;;;;;;5060008;28;20087;-79
2023/12/15 05:02:42;;;;;;;8.48;5.03;;;4.90;99.90;;;;;;5066454;28;20056;-79
2023/12/15 05:05:08;;;;;;;8.35;4.00;;;5.00;99.90;;;;;;5064987;28;20088;-80
2023/12/15 05:07:34;;;;;;;8.02;4.95;;;4.90;99.90;;;;;;5063184;28;20036;-78
2023/12/15 05:09:59;;;;;;;7.60;4.15;;;4.90;99.90;;;;;;5063644;28;20338;-77
2023/12/15 05:12:25;;;;;;;9.27;4.00;;;5.00;99.90;;;;;;5064066;28;20016;-79
2023/12/15 05:14:51;;;;;;;7.03;4.03;;;5.00;99.90;;;;;;5064922;28;20029;-80
2023/12/15 05:17:17;;;;;;;8.30;4.35;;;5.00;99.90;;;;;;5058884;28;20033;-78
2023/12/15 05:19:46;;;;;;;9.93;4.28;;;5.00;99.90;;;;;;5044477;28;20048;-79
2023/12/15 05:22:12;;;;;;;7.70;4.38;;;5.00;99.90;;;;;;5043656;28;20034;-78
2023/12/15 05:24:38;;;;;;;6.72;4.10;;;5.00;99.90;;;;;;5044370;28;20136;-77
2023/12/15 05:27:08;;;;;;;7.60;4.07;;;5.00;99.90;;;;;;5059313;28;20076;-78
2023/12/15 05:29:34;;;;;;;7.90;4.80;;;5.00;99.90;;;;;;5026415;28;20025;-78
2023/12/15 05:33:06;;;;;;;7.85;4.32;;;5.00;99.90;;;;;;5059786;28;20041;-78
2023/12/15 05:35:38;;;;;;;7.80;4.18;;;5.00;99.90;;;;;;5021184;28;20045;-77
2023/12/15 05:38:04;;;;;;;9.95;4.88;;;5.00;99.90;;;;;;5043046;28;20041;-77
2023/12/15 05:40:42;;;;;;;10.43;4.40;;;5.00;99.90;;;;;;5059100;28;20064;-78
2023/12/15 05:43:07;;;;;;;8.15;4.40;;;5.00;99.90;;;;;;5044465;28;20068;-76
2023/12/15 05:45:34;;;;;;;9.80;4.80;;;5.00;99.90;;;;;;5042647;28;20049;-75
2023/12/15 05:48:03;;;;;;;9.57;5.05;;;5.00;99.90;;;;;;5043972;28;20165;-78
2023/12/15 05:50:29;;;;;;;8.57;4.93;;;5.10;99.90;;;;;;5050964;28;20056;-75
2023/12/15 05:52:54;;;;;;;9.80;5.10;;;5.00;99.90;;;;;;5059180;28;20025;-76
2023/12/15 05:55:20;;;;;;;8.40;4.60;;;5.10;99.90;;;;;;5042137;28;20028;-77
2023/12/15 05:57:46;;;;;;;9.10;5.32;;;5.10;99.90;;;;;;5042422;28;20128;-77
2023/12/15 06:00:12;;;;;;;9.20;5.18;;;5.10;99.90;;;;;;5042781;28;20029;-76
2023/12/15 06:02:40;;;;;;;8.73;5.00;;;5.10;99.90;;;;;;5051298;28;20009;-76
2023/12/15 06:05:06;;;;;;;7.87;4.83;;;5.10;99.90;;;;;;5062942;28;20045;-77
2023/12/15 06:07:33;;;;;;;9.23;5.03;;;5.10;99.90;;;;;;5062334;28;20307;-75
2023/12/15 06:10:00;;;;;;;10.75;5.18;;;5.10;99.90;;;;;;5045919;28;20020;-76
2023/12/15 06:12:26;;;;;;;9.80;5.13;;;5.10;99.90;;;;;;5063174;28;20103;-79
2023/12/15 06:14:52;;;;;;;9.90;4.63;;;5.10;99.90;;;;;;5062420;28;20024;-78
2023/12/15 06:17:20;;;;;;;8.85;5.22;;;5.10;99.90;;;;;;5063247;28;20024;-77
2023/12/15 06:19:50;;;;;;;8.35;5.18;;;5.10;99.90;;;;;;5058315;28;20026;-77
2023/12/15 06:22:23;;;;;;;9.57;5.00;;;5.10;99.90;;;;;;5042985;28;20304;-78
2023/12/15 06:24:49;;;;;;;8.85;5.15;;;5.10;99.90;;;;;;5062100;28;20029;-76
2023/12/15 06:27:15;;;;;;;8.90;5.30;;;5.20;99.90;;;;;;5045662;28;20025;-77
2023/12/15 06:29:41;;;;;;;9.07;5.25;;;5.20;99.90;;;;;;5061766;28;20241;-75
2023/12/15 06:32:08;;;;;;;10.18;5.00;;;5.20;99.90;;;;;;5061773;28;20024;-76
2023/12/15 06:34:34;;;;;;;10.05;5.63;;;5.20;99.90;;;;;;5044836;28;20067;-77
2023/12/15 06:37:01;;;;;;;7.97;4.85;;;5.30;99.90;;;;;;5041139;28;20025;-77
2023/12/15 06:39:27;;;;;;;10.70;5.35;;;5.30;99.90;;;;;;5043792;28;20410;-77
2023/12/15 06:41:53;;;;;;;9.98;5.45;;;5.30;99.90;;;;;;5061793;28;20029;-76
2023/12/15 06:44:19;;;;;;;9.27;4.78;;;5.30;99.90;;;;;;5044656;28;20017;-77
2023/12/15 06:46:46;;;;;;;9.27;5.15;;;5.20;99.90;;;;;;5062543;28;20104;-77
2023/12/15 06:49:12;;;;;;;8.30;4.80;;;5.20;99.90;;;;;;5044747;28;20025;-76
2023/12/15 06:51:38;;;;;;;8.55;5.03;;;5.20;99.90;;;;;;5044490;28;20090;-79
2023/12/15 06:54:09;;;;;;;10.18;4.85;;;5.30;99.90;;;;;;5044851;28;20247;-79
2023/12/15 06:56:38;;;;;;;8.80;5.10;;;5.20;99.90;;;;;;5040731;28;20076;-80
2023/12/15 06:59:06;;;;;;;11.30;5.10;;;5.20;99.90;;;;;;5040732;28;20037;-77
2023/12/15 07:01:38;;;;;;;9.15;4.85;;;5.20;99.90;;;;;;5040645;28;20143;-76
2023/12/15 07:04:16;;;;;;;10.43;5.20;;;5.20;99.90;;;;;;5058722;28;20029;-78
2023/12/15 07:06:42;;;;;;;9.20;5.40;;;5.20;99.90;;;;;;5061969;28;20091;-76
2023/12/15 07:09:11;;;;;;;9.10;4.85;;;5.20;99.90;;;;;;5061678;28;20055;-77
2023/12/15 07:11:46;;;;;;;9.82;5.75;;;5.20;99.90;;;;;;5041814;28;20335;-75
2023/12/15 07:14:24;;;;;;;9.27;5.05;;;5.20;99.90;;;;;;5031782;28;20024;-79
2023/12/15 07:16:50;;;;;;;7.47;4.50;;;5.20;99.90;;;;;;5061965;28;20032;-77
2023/12/15 07:19:16;;;;;;;11.75;5.70;;;5.20;99.90;;;;;;5062189;28;20083;-78
2023/12/15 07:21:41;;;;;;;9.98;5.43;;;5.30;99.90;;;;;;5027240;28;20039;-77
2023/12/15 07:24:07;;;;;;;9.73;4.97;;;5.30;99.90;;;;;;5044371;28;20031;-80
2023/12/15 07:26:33;;;;;;;9.35;5.30;;;5.30;99.90;;;;;;5039443;28;20065;-78
2023/12/15 07:28:59;;;;;;;9.27;5.13;;;5.30;99.90;;;;;;5041820;28;20120;-79
2023/12/15 07:31:26;;;;;;;9.18;5.63;;;5.30;99.90;;;;;;5040831;28;20092;-76
2023/12/15 07:33:53;;;;;;;8.23;5.03;;;5.30;99.90;;;;;;5040870;28;20021;-78
2023/12/15 07:36:20;;;;;;;10.82;5.97;;;5.20;99.90;;;;;;5040981;28;20144;-78
2023/12/15 07:38:47;;;;;;;9.60;4.50;;;5.30;99.90;;;;;;5041139;28;20060;-79
2023/12/15 07:41:14;;;;;;;10.20;5.82;;;5.40;99.90;;;;;;5057952;28;20022;-78
2023/12/15 07:43:43;;;;;;;9.43;4.93;;;5.40;99.90;;;;;;5039423;28;20032;-77
2023/12/15 07:46:33;;;;;;;9.18;4.93;;;5.40;99.90;;;;;;5044240;28;20346;-79
2023/12/15 07:49:00;;;;;;;9.20;4.97;;;5.40;99.90;;;;;;5062042;28;20063;-78
2023/12/15 07:51:25;;;;;;;8.52;5.18;;;5.50;99.90;;;;;;5043394;28;20096;-78
2023/12/15 07:53:51;;;;;;;8.95;4.80;;;5.50;99.90;;;;;;5027742;28;20021;-79
2023/12/15 07:56:25;;;;;;;9.52;5.20;;;5.50;99.90;;;;;;5061864;28;20036;-78
2023/12/15 07:58:53;;;;;;;8.68;5.10;;;5.60;99.90;;;;;;5043673;28;20049;-78
2023/12/15 08:01:21;;;;;;;8.88;5.10;;;5.60;99.90;;;;;;5027706;28;20029;-78
2023/12/15 08:03:59;;;;;;;10.43;5.47;;;5.60;99.90;;;;;;5038649;28;20096;-79
2023/12/15 08:06:30;;;;;;;7.85;4.90;;;5.50;99.90;;;;;;5061485;28;20029;-78
2023/12/15 08:09:34;;;;;;;8.50;5.22;;;5.50;99.90;;;;;;5044300;28;20060;-78
2023/12/15 08:12:22;;;;;;;9.32;5.45;;;5.50;99.90;;;;;;5014321;28;20041;-78
2023/12/15 08:14:48;;;;;;;12.50;5.43;;;5.50;99.90;;;;;;5050672;28;20204;-80
2023/12/15 08:17:14;;;;;;;10.18;5.47;;;5.50;99.90;;;;;;5060080;28;20075;-80
2023/12/15 08:19:40;;;;;;;11.07;6.43;;;5.60;99.90;;;;;;5043846;28;20033;-77
2023/12/15 08:22:07;;;;;;;9.27;5.43;;;5.70;99.90;;;;;;5057999;28;20014;-78
2023/12/15 08:24:32;;;;;;;10.68;5.70;;;5.70;99.90;;;;;;5043807;28;20045;-76
2023/12/15 08:27:01;;;;;;;10.07;5.85;;;5.70;99.90;;;;;;5060802;28;20052;-78
2023/12/15 08:29:26;;;;;;;10.68;6.20;;;5.80;99.90;;;;;;5027670;28;20032;-76
2023/12/15 08:31:52;;;;;;;10.88;6.03;;;5.80;99.90;;;;;;5044176;28;20041;-76
2023/12/15 08:34:18;;;;;;;10.00;5.90;;;5.90;99.90;;;;;;5044423;28;20075;-75
2023/12/15 08:36:47;;;;;;;10.65;6.00;;;6.00;99.90;;;;;;5057940;28;20025;-76
2023/12/15 08:39:13;;;;;;;20.92;6.50;;;6.00;99.90;;;;;;5060593;28;20059;-77
2023/12/15 08:41:39;;;;;;;10.50;6.10;;;6.00;99.90;;;;;;5044133;28;20089;-75
2023/12/15 08:44:06;;;;;;;10.32;5.97;;;6.00;99.90;;;;;;5045275;28;20184;-75
2023/12/15 08:46:32;;;;;;;11.43;6.13;;;6.10;99.90;;;;;;5026771;28;20025;-75
2023/12/15 08:48:58;;;;;;;11.73;6.32;;;6.10;99.90;;;;;;5045061;28;20040;-75
2023/12/15 08:51:30;;;;;;;11.60;5.43;;;6.20;99.90;;;;;;5045348;28;20028;-74
2023/12/15 08:53:55;;;;;;;11.35;6.13;;;6.20;99.90;;;;;;5048483;28;20065;-73
2023/12/15 08:56:21;;;;;;;10.82;5.85;;;6.20;99.90;;;;;;5070798;28;20200;-72
2023/12/15 08:58:47;;;;;;;10.00;5.72;;;6.20;99.90;;;;;;5065596;28;20056;-73
2023/12/15 09:01:13;;;;;;;9.88;6.22;;;6.30;99.90;;;;;;5045632;28;20041;-76
2023/12/15 09:03:38;;;;;;;10.98;6.10;;;6.20;99.90;;;;;;5062628;28;20029;-74
2023/12/15 09:06:04;;;;;;;10.57;6.22;;;6.20;99.90;;;;;;5065521;28;20025;-75
2023/12/15 09:08:30;;;;;;;11.98;5.95;;;6.30;99.90;;;;;;5062678;28;20032;-74
2023/12/15 09:10:55;;;;;;;11.73;5.65;;;6.30;99.90;;;;;;5063740;28;20045;-76
2023/12/15 09:13:21;;;;;;;9.40;6.00;;;6.30;99.90;;;;;;5063754;28;20040;-78
2023/12/15 09:15:47;;;;;;;9.18;6.10;;;6.40;99.90;;;;;;5063675;28;20029;-77
2023/12/15 09:18:14;;;;;;;8.60;5.85;;;6.40;99.90;;;;;;5080252;28;20033;-74
2023/12/15 09:20:39;;;;;;;12.75;6.05;;;6.40;99.90;;;;;;5063869;28;20041;-74
2023/12/15 09:23:12;;;;;;;14.60;7.25;;;6.40;99.90;;;;;;5063491;28;20025;-76
2023/12/15 09:25:40;;;;;;;10.88;6.60;;;6.50;99.90;;;;;;5058707;28;20029;-76
2023/12/15 09:28:10;;;;;;;14.02;8.25;;;6.50;99.90;;;;;;5046365;28;20132;-76
2023/12/15 09:30:36;;;;;;;12.95;6.22;;;6.60;99.90;;;;;;5063573;28;20047;-76
2023/12/15 09:33:01;;;;;;;10.77;6.15;;;6.60;99.90;;;;;;5030047;28;20021;-74
2023/12/15 09:35:27;;;;;;;12.20;6.65;;;6.70;99.90;;;;;;5063814;28;20098;-75
2023/12/15 09:37:53;;;;;;;10.38;6.20;;;6.70;99.90;;;;;;5063798;28;20033;-78
2023/12/15 09:40:25;;;;;;;11.15;6.25;;;6.70;99.90;;;;;;5063910;28;20079;-79
2023/12/15 09:42:51;;;;;;;10.57;6.20;;;6.80;99.90;;;;;;5043762;28;20083;-77
2023/12/15 09:45:17;;;;;;;9.35;6.38;;;6.80;99.90;;;;;;5042935;28;20316;-77
2023/12/15 09:47:47;;;;;;;12.38;6.22;;;6.80;99.90;;;;;;5043610;28;20021;-75
2023/12/15 09:50:15;;;;;;;10.02;5.88;;;6.90;99.90;;;;;;5043540;28;20033;-77
2023/12/15 09:52:42;;;;;;;13.85;6.93;;;7.00;99.90;;;;;;5043207;28;20084;-77
2023/12/15 09:55:09;;;;;;;10.35;6.13;;;7.00;99.90;;;;;;5042495;28;20133;-75
2023/12/15 09:57:35;;;;;;;9.88;6.40;;;7.10;99.90;;;;;;5042905;28;20047;-75
2023/12/15 10:00:01;;;;;;;9.38;5.95;;;7.20;99.90;;;;;;5043556;28;20037;-77
2023/12/15 10:02:27;;;;;;;9.15;6.07;;;7.30;99.90;;;;;;5057883;28;20311;-77
2023/12/15 10:04:53;;;;;;;9.75;5.85;;;7.30;99.90;;;;;;5029447;28;20062;-75
2023/12/15 10:07:18;;;;;;;10.27;5.63;;;7.40;99.90;;;;;;5045641;28;20104;-75
2023/12/15 10:09:44;;;;;;;9.23;5.82;;;7.50;99.90;;;;;;5063059;28;20028;-74
2023/12/15 10:12:10;;;;;;;9.25;4.93;;;7.50;99.90;;;;;;5043657;28;20219;-76
2023/12/15 10:14:37;;;;;;;8.77;5.30;;;7.60;99.90;;;;;;5053303;28;20044;-75
2023/12/15 10:17:10;;;;;;;9.40;5.68;;;7.60;99.90;;;;;;5063210;28;20047;-75
2023/12/15 10:19:36;;;;;;;10.32;5.63;;;7.60;99.90;;;;;;5052503;28;20039;-73
2023/12/15 10:22:05;;;;;;;8.45;5.40;;;7.80;99.90;;;;;;5044197;28;20033;-74
2023/12/15 10:24:34;;;;;;;9.30;5.55;;;7.90;99.90;;;;;;5061734;28;20123;-77
2023/12/15 10:27:02;;;;;;;10.15;5.78;;;8.20;99.90;;;;;;5045108;28;20043;-77
2023/12/15 10:29:28;;;;;;;8.40;6.00;;;8.30;99.90;;;;;;5048749;28;20029;-77
2023/12/15 10:31:54;;;;;;;9.43;6.18;;;8.40;99.90;;;;;;5045110;28;20049;-74
2023/12/15 10:34:27;;;;;;;7.95;5.38;;;8.40;99.90;;;;;;5052987;28;20204;-76
2023/12/15 10:36:54;;;;;;;10.90;6.15;;;8.40;99.90;;;;;;5025490;28;20052;-75
2023/12/15 10:39:21;;;;;;;8.32;5.60;;;8.40;99.90;;;;;;5035727;28;20037;-75
2023/12/15 10:41:48;;;;;;;10.57;6.00;;;8.60;99.90;;;;;;5044076;28;20112;-78
2023/12/15 10:44:20;;;;;;;10.02;5.88;;;8.70;99.90;;;;;;5069557;28;20016;-75
2023/12/15 10:46:49;;;;;;;9.52;5.45;;;8.70;99.90;;;;;;5066843;28;20028;-75
2023/12/15 10:49:16;;;;;;;9.77;5.55;;;8.70;99.90;;;;;;5044553;28;20032;-75
2023/12/15 10:51:43;;;;;;;9.32;5.05;;;8.90;99.90;;;;;;5044312;28;20040;-75
2023/12/15 10:54:09;;;;;;;7.95;5.07;;;8.90;99.90;;;;;;5044571;28;20021;-76
2023/12/15 10:56:39;;;;;;;8.93;5.45;;;8.90;99.90;;;;;;5043960;28;20048;-76
2023/12/15 10:59:09;;;;;;;8.10;5.32;;;8.80;99.90;;;;;;5044456;28;20037;-76
2023/12/15 11:01:37;;;;;;;8.23;4.63;;;8.80;99.90;;;;;;5061896;28;20157;-75
2023/12/15 11:04:16;;;;;;;10.18;5.40;;;8.80;99.90;;;;;;5044805;28;20040;-78
2023/12/15 11:06:42;;;;;;;8.10;5.30;;;8.70;99.90;;;;;;5077964;28;20041;-78
2023/12/15 11:09:08;;;;;;;9.23;5.00;;;8.70;99.90;;;;;;5062413;28;20033;-76
2023/12/15 11:11:33;;;;;;;9.48;4.35;;;8.70;99.90;;;;;;5055105;28;20299;-77
2023/12/15 11:14:04;;;;;;;8.07;4.35;;;8.70;99.90;;;;;;5047658;28;20215;-76
2023/12/15 11:16:34;;;;;;;7.05;4.50;;;8.80;99.90;;;;;;5062457;28;20218;-78
2023/12/15 11:19:00;;;;;;;6.93;4.15;;;8.80;99.90;;;;;;5062402;28;20044;-77
2023/12/15 11:21:27;;;;;;;6.38;3.83;;;8.90;99.90;;;;;;5028180;28;20258;-79
2023/12/15 11:23:58;;;;;;;7.28;4.13;;;9.10;99.90;;;;;;5061879;28;20017;-78
2023/12/15 11:26:39;;;;;;;9.57;4.38;;;9.10;99.90;;;;;;5044723;28;20057;-77
2023/12/15 11:29:11;;;;;;;7.40;4.28;;;9.30;99.90;;;;;;5024247;28;20071;-78
2023/12/15 11:31:43;;;;;;;6.05;3.00;;;9.30;99.90;;;;;;5061844;28;20357;-77
2023/12/15 11:34:18;;;;;;;5.95;3.05;;;9.30;99.90;;;;;;5062349;28;20223;-78
2023/12/15 11:36:56;;;;;;;6.95;3.50;;;9.10;99.90;;;;;;5044533;28;20028;-77
2023/12/15 11:39:24;;;;;;;6.72;3.35;;;9.20;99.90;;;;;;5032051;28;20043;-77
2023/12/15 11:41:50;;;;;;;5.78;3.70;;;9.00;99.90;;;;;;5040222;28;20049;-76
2023/12/15 11:44:16;;;;;;;6.60;3.78;;;8.90;99.90;;;;;;5024619;28;20059;-77
2023/12/15 11:46:42;;;;;;;6.72;4.00;;;9.00;99.90;;;;;;5024244;28;20060;-75
2023/12/15 11:49:08;;;;;;;6.22;3.50;;;9.00;99.90;;;;;;5041674;28;20053;-76
2023/12/15 11:51:34;;;;;;;7.28;3.40;;;9.00;99.90;;;;;;5023904;28;20140;-76
2023/12/15 11:54:02;;;;;;;5.60;3.25;;;9.00;99.90;;;;;;5024268;28;20243;-76
2023/12/15 11:56:28;;;;;;;7.55;3.53;;;9.00;99.90;;;;;;5052679;28;20037;-75
2023/12/15 11:58:53;;;;;;;5.80;3.30;;;8.70;99.90;;;;;;5065001;28;20121;-76
2023/12/15 12:01:19;;;;;;;6.68;3.30;;;8.60;99.90;;;;;;5065728;28;20028;-75
2023/12/15 12:03:45;;;;;;;5.32;3.35;;;8.80;99.90;;;;;;5064688;28;20033;-75
2023/12/15 12:06:11;;;;;;;5.50;3.13;;;8.80;99.90;;;;;;5065602;28;20135;-76
2023/12/15 12:08:38;;;;;;;5.70;2.97;;;8.80;99.90;;;;;;5030939;28;20020;-75
2023/12/15 12:11:05;;;;;;;5.85;3.40;;;8.80;99.90;;;;;;5065304;28;20319;-76
2023/12/15 12:13:37;;;;;;;7.25;3.80;;;8.60;99.90;;;;;;5045357;28;20025;-76
2023/12/15 12:16:04;;;;;;;6.65;3.45;;;8.50;99.90;;;;;;5045482;28;20030;-75
2023/12/15 12:18:31;;;;;;;4.65;2.47;;;8.60;99.90;;;;;;5045370;28;20311;-75
2023/12/15 12:21:02;;;;;;;4.35;2.45;;;8.70;99.90;;;;;;5043524;28;20029;-76
2023/12/15 12:23:28;;;;;;;5.65;2.78;;;8.80;99.90;;;;;;5045378;28;20025;-76
2023/12/15 12:25:58;;;;;;;4.70;2.72;;;9.00;99.90;;;;;;5059800;28;20029;-76
2023/12/15 12:28:40;;;;;;;4.75;2.85;;;8.80;99.90;;;;;;5060859;28;20319;-77
2023/12/15 12:31:06;;;;;;;3.90;2.17;;;8.90;99.90;;;;;;5027530;28;20035;-78
2023/12/15 12:33:32;;;;;;;5.00;2.30;;;8.70;99.90;;;;;;5046136;28;20100;-78
2023/12/15 12:35:59;;;;;;;5.30;2.60;;;8.70;99.90;;;;;;5029546;28;20317;-79
2023/12/15 12:38:25;;;;;;;4.82;2.85;;;8.70;99.90;;;;;;5030649;28;20311;-77
2023/12/15 12:40:50;;;;;;;5.72;2.95;;;8.70;99.90;;;;;;5046549;28;20091;-78
2023/12/15 12:43:16;;;;;;;5.00;3.03;;;8.70;99.90;;;;;;5064701;28;20075;-77
2023/12/15 12:45:42;;;;;;;4.82;3.00;;;8.60;99.90;;;;;;5046664;28;20079;-77
2023/12/15 12:48:08;;;;;;;5.60;2.53;;;8.60;99.90;;;;;;5060865;28;20112;-77
2023/12/15 12:50:34;;;;;;;5.13;2.85;;;8.50;99.90;;;;;;5046595;28;20232;-78
2023/12/15 12:52:59;;;;;;;4.70;2.78;;;8.50;99.90;;;;;;5030378;28;20064;-78
2023/12/15 12:55:25;;;;;;;4.57;2.75;;;8.50;99.90;;;;;;5030850;28;20053;-77